Mcewen Mining Inc (MUX) Latest Bloomsberg Price


Mffais Ranking #172 Overall / #5 Industry
Industry: Precious Metal Mining

Number of Companies: 79 (Ranking #1909 Overall/#24 Industry)
Inflow: $ 68,829 (K) (Ranking #1159 Overall/#27 Industry)
Outflow: $ -11,318 (K)
Mffais Flow: $ 57,510 (K) (Ranking #172 Overall/#5 Industry)


Receive a FREE weekly executive review of stocks moving into the top 10, taking the top industy spot or moving up within their industry. Sent directly to your Inbox every Saturday. Sign up today and get last week's review immediately sent to you.

We value and respect your privacy. Please read our Terms and Conditions which states our firm commitment to your privacy. Your email address will not be shared with a third party, nor will it be sold or used for purposes other than subscription for the weekly review.

Owner CPOR Shares Action Qty Chg Invested (K) Total Current Value (K)
Van Eck Associates Corp 2016-09-30 49,211,419 Added More 14,247,470 $ 52,573 $ 181,590
Alps Advisors Inc 2016-09-30 1,261,222 New Holding 1,261,222 $ 4,653 $ 4,653
Sprott Inc 2016-09-30 701,800 New Holding 701,800 $ 2,589 $ 2,589
Global X Management Co Llc 2016-09-30 3,315,895 Added More 431,197 $ 1,591 $ 12,235
Oshaughnessy Asset Management Llc 2016-09-30 381,298 New Holding 381,298 $ 1,406 $ 1,406
Jane Street Group Llc 2016-09-30 1,184,713 Added More 303,941 $ 1,121 $ 4,371
Guggenheim Capital Llc 2016-09-30 282,330 New Holding 282,330 $ 1,041 $ 1,041
Invictus Rg 2016-09-30 163,207 New Holding 163,207 $ 602 $ 602
Group One Trading L P 2016-09-30 173,726 Added More 122,768 $ 453 $ 641
Gsa Capital Partners Llp 2016-09-30 135,067 Added More 105,000 $ 387 $ 498
Advisor Group Inc 2016-09-30 206,229 Added More 98,300 $ 362 $ 760
Capstone Investment Advisors Llc 2016-09-30 63,300 New Holding 63,300 $ 233 $ 233
Commerzbank Aktiengesellschaft Fi 2016-09-30 60,080 New Holding 60,080 $ 221 $ 221
Cibc World Markets Inc 2016-09-30 100,438 Added More 54,888 $ 202 $ 370
A R T Advisors Llc 2016-09-30 48,600 New Holding 48,600 $ 179 $ 179
Vertex One Asset Management Inc 2016-09-30 1,675,800 Added More 47,100 $ 173 $ 6,183
Cutler Group Lp 2016-09-30 70,600 Added More 46,800 $ 172 $ 260
Parametric Portfolio Associates Llc 2016-09-30 39,109 New Holding 39,109 $ 144 $ 144
Tower Research Capital Llc Trc 2016-09-30 37,235 Added More 36,135 $ 133 $ 137
Raymond James Associates 2016-09-30 53,583 Added More 33,395 $ 123 $ 197
Boothbay Fund Management Llc 2016-09-30 20,781 New Holding 20,781 $ 76 $ 76
Clinton Group Inc 2016-09-30 19,991 New Holding 19,991 $ 73 $ 73
Landscape Capital Management L L C 2016-09-30 16,800 New Holding 16,800 $ 61 $ 61
Abner Herrman Brock Llc 2016-09-30 13,500 New Holding 13,500 $ 49 $ 49
Springbok Capital Management Llc 2016-09-30 12,400 Added More 10,400 $ 38 $ 45
Howe Rusling Inc 2016-09-30 10,094 New Holding 10,094 $ 37 $ 37
Shufro Rose Co Llc 2016-09-30 10,000 New Holding 10,000 $ 36 $ 36
First Republic Investment Management Inc 2016-09-30 21,050 Added More 6,000 $ 22 $ 77
Creative Planning 2016-09-30 5,219 Added More 4,169 $ 15 $ 19
National Planning Corp 2016-09-30 36,225 Added More 3,000 $ 11 $ 133
Connor Clark Lunn Investment Management Ltd 2016-09-30 62,075 Added More 2,900 $ 10 $ 229
Aperio Group Llc 2016-09-30 32,836 Added More 1,752 $ 6 $ 121
Cwa Asset Management Group Llc 2016-09-30 132,610 Added More 1,460 $ 5 $ 489
Zurcher Kantonalbank Zurich Cantonalbank 2016-09-30 13,930 Added More 1,384 $ 5 $ 51
Wfg Advisors Lp 2016-09-30 21,935 Added More 1,252 $ 4 $ 80
Sheaff Brock Investment Advisors Llc 2016-09-30 111,495 Added More 1,005 $ 3 $ 411
Msi Financial Services Inc 2016-09-30 277 New Holding 277 $ 1 $ 1
Financial Management Professionals Inc 2016-09-30 100 New Holding 100 $ 0 $ 0
Advisory Services Network Llc 2016-09-30 350 Added More 50 $ 0 $ 1
Us Bancorp De 2016-09-30 400 No Change 0 $ 0 $ 1
Sei Investments Co 2016-09-30 6,586 No Change 0 $ 0 $ 24
Dimensional Fund Advisors Lp 2016-09-30 1,224,467 No Change 0 $ 0 $ 4,518
Pnc Financial Services Group Inc 2016-09-30 2,150 No Change 0 $ 0 $ 7
First Manhattan Co 2016-09-30 66,000 No Change 0 $ 0 $ 243
Ladenburg Thalmann Financial Services Inc 2016-09-30 104 No Change 0 $ 0 $ 0
Css Llc Il 2016-09-30 63,646 No Change 0 $ 0 $ 234
Massmutual Trust Co Fsb Adv 2016-06-30 212 No Change 0 $ 0 $ 0
Puplava Financial Services Inc 2016-09-30 11,521 No Change 0 $ 0 $ 42
Benjamin F Edwards Company Inc 2016-09-30 10 No Change 0 $ 0 $ 0
Ls Investment Advisors Llc 2016-09-30 2,000 No Change 0 $ 0 $ 7
Qs Investors Llc 2016-09-30 91 No Change 0 $ 0 $ 0
Cumberland Partners Ltd 2016-09-30 10,000 No Change 0 $ 0 $ 36
Jacobi Capital Management Llc 2016-09-30 6,350 No Change 0 $ 0 $ 23
Fifth Third Bancorp 2016-09-30 0 Sold All -500 $ -1 $ 0
Ifp Advisors Inc 2016-09-30 0 Sold All -500 $ -1 $ 0
Concannon Wealth Management Llc 2016-09-30 500 Sold Some -500 $ -1 $ 1
Jones Collombin Investment Counsel Inc 2016-09-30 0 Sold All -600 $ -2 $ 0
Horizon Kinetics Llc 2016-09-30 326,476 Sold Some -971 $ -3 $ 1,204
Tfs Capital Llc 2016-09-30 30,960 Sold Some -1,184 $ -4 $ 114
Spot Trading L L C 2016-09-30 32,652 Sold Some -2,900 $ -10 $ 120
Private Advisor Group Llc 2016-09-30 26,317 Sold Some -3,050 $ -11 $ 97
Simplex Trading Llc 2016-09-30 0 Sold All -3,998 $ -14 $ 0
Acrospire Investment Management Llc 2016-09-30 3,100 Sold Some -5,400 $ -19 $ 11
Teacher Retirement System Of Texas 2016-09-30 24,438 Sold Some -7,412 $ -27 $ 90
Northern Trust Corp 2016-09-30 719,261 Sold Some -8,143 $ -30 $ 2,654
Scotia Capital Inc 2016-09-30 0 Sold All -10,850 $ -40 $ 0
Smith Affiliated Capital Corp 2016-09-30 46,827 Sold Some -12,000 $ -44 $ 172
One Capital Management Llc 2016-09-30 10,684 Sold Some -12,147 $ -44 $ 39
Squarepoint Ops Llc 2016-09-30 0 Sold All -17,000 $ -62 $ 0
Stifel Financial Corp 2016-09-30 46,385 Sold Some -30,225 $ -111 $ 171
Swiss National Bank 2016-09-30 366,931 Sold Some -30,400 $ -112 $ 1,353
Amp Capital Investors Ltd 2016-09-30 0 Sold All -45,700 $ -168 $ 0
Engineers Gate Manager Lp 2016-09-30 0 Sold All -56,702 $ -209 $ 0
Blackrock Inc 2016-09-30 781,886 Sold Some -74,269 $ -274 $ 2,885
Kcg Holdings Inc 2016-09-30 27,033 Sold Some -115,025 $ -424 $ 99
Royce Associates Lp 2016-09-30 363,200 Sold Some -175,000 $ -645 $ 1,340
Staley Capital Advisers Inc 2016-09-30 3,715,440 Sold Some -370,000 $ -1,365 $ 13,709
Empyrean Capital Partners Lp 2016-09-30 0 Sold All -553,437 $ -2,042 $ 0
Hillsdale Investment Management Inc 2016-09-30 0 Sold All -1,529,476 $ -5,643 $ 0